Time;durP1;ratioP1;P1;durP2;ratioP2;P2;SDS_P1;SDS_P2;PMS_P1;PMS_P2;Temp;Humidity;BMP_temperature;BMP_pressure;BME280_temperature;BME280_humidity;BME280_pressure;Samples;Min_cycle;Max_cycle;Signal;HPM_P1;HPM_P2
2023/09/11 00:00:29;;;;;;;;;1.00;1.00;;;;;24.29;60.31;100137.84;5052331;28;45218;-76
2023/09/11 00:02:54;;;;;;;;;1.00;0.00;;;;;24.27;61.26;100116.53;5052601;28;45438;-79
2023/09/11 00:05:20;;;;;;;;;1.67;1.00;;;;;24.04;62.21;100081.75;5042515;28;45579;-79
2023/09/11 00:07:46;;;;;;;;;1.00;1.00;;;;;23.88;60.87;100050.25;5050653;28;45571;-71
2023/09/11 00:10:11;;;;;;;;;0.00;0.00;;;;;23.88;59.24;100028.91;5050177;28;45516;-71
2023/09/11 00:12:37;;;;;;;;;1.00;0.00;;;;;23.95;59.25;100018.88;5048521;28;46015;-69
2023/09/11 00:15:03;;;;;;;;;1.00;1.00;;;;;24.08;59.59;100024.69;5044486;28;45517;-70
2023/09/11 00:17:30;;;;;;;;;1.00;1.00;;;;;24.05;61.75;100035.47;5048685;28;45493;-73
2023/09/11 00:19:55;;;;;;;;;1.00;0.00;;;;;24.04;60.54;100023.91;5046363;28;45471;-71
2023/09/11 00:22:21;;;;;;;;;1.00;1.00;;;;;24.04;60.69;100039.94;5047109;28;46006;-71
2023/09/11 00:24:47;;;;;;;;;1.67;1.00;;;;;24.07;61.02;100045.16;5044259;28;45374;-71
2023/09/11 00:27:12;;;;;;;;;1.33;1.00;;;;;23.87;63.75;100047.63;5047888;28;45564;-71
2023/09/11 00:29:38;;;;;;;;;1.00;1.00;;;;;23.85;63.45;100061.00;5054357;28;45371;-71
2023/09/11 00:32:04;;;;;;;;;1.00;1.00;;;;;23.86;62.68;100043.22;5048593;28;45598;-71
2023/09/11 00:34:30;;;;;;;;;1.00;1.00;;;;;23.85;63.00;100045.00;5048430;28;45509;-70
2023/09/11 00:36:56;;;;;;;;;0.67;0.67;;;;;23.86;62.81;100028.09;5052134;28;45524;-72
2023/09/11 00:39:22;;;;;;;;;0.00;0.00;;;;;23.85;62.64;100038.78;5054663;28;45660;-70
2023/09/11 00:41:47;;;;;;;;;1.00;1.00;;;;;23.85;62.14;100037.00;5045764;28;45487;-70
2023/09/11 00:44:13;;;;;;;;;0.00;0.00;;;;;23.86;63.11;100045.88;5048449;28;45374;-71
2023/09/11 00:46:40;;;;;;;;;1.00;1.00;;;;;23.88;63.56;100042.25;5050494;28;45275;-70
2023/09/11 00:49:06;;;;;;;;;1.00;1.00;;;;;23.88;63.46;100044.03;5051145;28;45399;-70
2023/09/11 00:51:37;;;;;;;;;0.67;0.67;;;;;23.89;64.75;100062.63;5045180;28;45524;-71
2023/09/11 00:54:03;;;;;;;;;1.00;1.00;;;;;23.98;64.30;100097.03;5054577;28;45478;-72
2023/09/11 00:56:30;;;;;;;;;1.00;1.00;;;;;24.01;64.28;100109.38;5048372;28;45639;-70
2023/09/11 00:58:56;;;;;;;;;1.67;1.00;;;;;23.80;64.01;100114.50;5041363;28;45512;-71
2023/09/11 01:01:23;;;;;;;;;1.00;1.00;;;;;23.75;63.68;100118.19;5050133;28;45539;-71
2023/09/11 01:03:49;;;;;;;;;1.00;1.00;;;;;23.80;64.10;100148.31;5046142;28;45574;-70
2023/09/11 01:06:15;;;;;;;;;1.00;1.00;;;;;23.78;63.11;100167.03;5050286;28;45730;-71
2023/09/11 01:08:41;;;;;;;;;0.00;0.00;;;;;23.72;63.49;100176.97;5056869;28;45234;-71
2023/09/11 01:11:07;;;;;;;;;1.00;0.33;;;;;23.74;64.76;100196.47;5056859;28;46275;-71
2023/09/11 01:13:33;;;;;;;;;1.00;0.00;;;;;23.76;63.25;100190.16;5056781;28;45255;-71
2023/09/11 01:16:15;;;;;;;;;1.00;1.00;;;;;23.77;63.33;100194.59;5055783;28;45543;-71
2023/09/11 01:18:50;;;;;;;;;1.00;0.00;;;;;23.77;63.48;100191.03;5056640;28;45510;-71
2023/09/11 01:21:42;;;;;;;;;1.00;0.33;;;;;23.71;63.51;100161.88;5056892;28;45409;-71
2023/09/11 01:24:15;;;;;;;;;1.00;1.00;;;;;23.63;64.50;100148.78;5056631;28;45416;-71
2023/09/11 01:27:18;;;;;;;;;1.00;1.00;;;;;23.55;64.08;100137.47;5056818;28;45446;-71
2023/09/11 01:29:45;;;;;;;;;0.00;0.00;;;;;23.42;61.34;100131.66;5053132;28;45399;-71
2023/09/11 01:32:11;;;;;;;;;1.00;1.00;;;;;23.52;61.51;100133.13;5048926;28;45414;-71
2023/09/11 01:34:37;;;;;;;;;2.00;1.00;;;;;23.61;62.30;100122.16;5054494;28;45403;-71
2023/09/11 01:37:02;;;;;;;;;1.00;1.00;;;;;23.60;63.31;100125.75;5041100;28;45288;-70
2023/09/11 01:39:28;;;;;;;;;1.33;1.00;;;;;23.57;64.72;100141.81;5047378;28;45302;-71
2023/09/11 01:42:00;;;;;;;;;1.33;1.33;;;;;23.46;65.42;100125.31;5059626;28;45355;-71
2023/09/11 01:44:38;;;;;;;;;1.00;1.00;;;;;23.55;65.14;100111.69;5041270;28;45395;-71
2023/09/11 01:47:06;;;;;;;;;1.00;1.00;;;;;23.43;65.76;100106.72;5047748;28;45398;-71
2023/09/11 01:49:32;;;;;;;;;2.00;2.00;;;;;23.35;66.50;100101.63;5046907;28;45532;-71
2023/09/11 01:51:59;;;;;;;;;1.33;1.33;;;;;23.25;66.15;100086.81;5055341;28;46014;-71
2023/09/11 01:54:25;;;;;;;;;2.00;1.67;;;;;22.97;68.38;100060.94;5059098;28;45339;-71
2023/09/11 01:56:51;;;;;;;;;2.00;1.00;;;;;22.91;68.30;100073.59;5060322;28;45354;-71
2023/09/11 01:59:16;;;;;;;;;1.67;1.67;;;;;22.92;67.74;100056.66;5060623;28;45298;-71
2023/09/11 02:01:45;;;;;;;;;1.33;1.33;;;;;22.90;67.98;100038.09;5060108;28;45973;-72
2023/09/11 02:04:11;;;;;;;;;2.00;1.00;;;;;22.91;67.83;100038.97;5058603;28;45322;-71
2023/09/11 02:06:37;;;;;;;;;1.00;1.00;;;;;22.95;67.79;100029.97;5059073;28;45330;-72
2023/09/11 02:09:02;;;;;;;;;2.00;1.00;;;;;22.93;67.98;100034.47;5042820;28;45449;-71
2023/09/11 02:11:28;;;;;;;;;2.67;2.00;;;;;22.84;68.92;100049.78;5059077;28;45769;-71
2023/09/11 02:13:54;;;;;;;;;1.67;1.00;;;;;22.77;69.03;100040.22;5049883;28;45350;-71
2023/09/11 02:16:20;;;;;;;;;1.00;1.00;;;;;22.77;68.57;100036.69;5051488;28;45515;-71
2023/09/11 02:18:45;;;;;;;;;1.00;1.00;;;;;22.65;68.93;100032.59;5055270;28;45575;-71
2023/09/11 02:21:11;;;;;;;;;1.33;1.00;;;;;22.64;68.40;100018.41;5038055;28;46792;-71
2023/09/11 02:23:36;;;;;;;;;1.33;1.33;;;;;22.61;68.85;100023.81;5055348;28;45558;-71
2023/09/11 02:26:02;;;;;;;;;2.00;1.00;;;;;22.62;67.81;100033.56;5054200;28;45266;-71
2023/09/11 02:28:28;;;;;;;;;1.00;1.00;;;;;22.61;67.98;100034.44;5047213;28;45334;-71
2023/09/11 02:30:54;;;;;;;;;1.00;1.00;;;;;22.63;68.91;100031.75;5046995;28;45988;-71
2023/09/11 02:33:19;;;;;;;;;1.00;1.00;;;;;22.59;68.68;100020.31;5054709;28;45480;-71
2023/09/11 02:35:51;;;;;;;;;1.00;1.00;;;;;22.62;67.35;100028.22;5058731;28;45268;-71
2023/09/11 02:38:16;;;;;;;;;2.67;2.67;;;;;22.60;67.69;100034.47;5051207;28;45486;-71
2023/09/11 02:40:42;;;;;;;;;1.33;1.00;;;;;22.49;68.92;100047.25;5039446;28;45297;-71
2023/09/11 02:43:07;;;;;;;;;1.00;1.00;;;;;22.39;69.27;100047.47;5039301;28;45399;-71
2023/09/11 02:45:33;;;;;;;;;2.00;2.00;;;;;22.28;68.95;100012.28;5039476;28;45488;-70
2023/09/11 02:47:59;;;;;;;;;1.33;1.00;;;;;22.34;68.83;100033.44;5038899;28;45437;-71
2023/09/11 02:50:24;;;;;;;;;2.00;2.00;;;;;22.34;68.77;100027.22;5048365;28;46065;-71
2023/09/11 02:52:50;;;;;;;;;2.00;2.00;;;;;22.32;69.18;100019.28;5059111;28;45961;-71
2023/09/11 02:55:15;;;;;;;;;1.00;1.00;;;;;22.33;69.01;100018.38;5058850;28;45311;-71
2023/09/11 02:57:41;;;;;;;;;1.00;1.00;;;;;22.27;68.87;100009.69;5057441;28;45531;-71
2023/09/11 03:00:09;;;;;;;;;3.67;2.67;;;;;22.39;69.13;100027.97;5056966;28;45389;-72
2023/09/11 03:02:34;;;;;;;;;1.00;1.00;;;;;22.40;69.07;100025.28;5059395;28;45352;-71
2023/09/11 03:05:00;;;;;;;;;2.00;2.00;;;;;22.38;70.03;100019.13;5058757;28;45458;-71
2023/09/11 03:07:25;;;;;;;;;1.00;1.00;;;;;22.37;68.55;100013.84;5057570;28;45547;-71
2023/09/11 03:09:51;;;;;;;;;1.00;1.00;;;;;22.39;68.61;100020.00;5055861;28;45568;-71
2023/09/11 03:12:17;;;;;;;;;1.67;1.67;;;;;22.35;68.68;100023.66;5048792;28;45650;-71
2023/09/11 03:14:42;;;;;;;;;2.00;2.00;;;;;22.30;67.98;100031.75;5039489;28;45440;-70
2023/09/11 03:17:10;;;;;;;;;1.00;1.00;;;;;22.26;68.43;100030.06;5059020;28;45263;-72
2023/09/11 03:19:36;;;;;;;;;2.00;2.00;;;;;22.24;68.12;100021.25;5040591;28;45567;-70
2023/09/11 03:22:02;;;;;;;;;4.00;3.67;;;;;22.14;68.50;100025.03;5053138;28;45453;-71
2023/09/11 03:24:28;;;;;;;;;2.67;2.67;;;;;22.03;68.86;100015.56;5056222;28;45300;-72
2023/09/11 03:26:54;;;;;;;;;3.00;2.33;;;;;22.06;68.91;100027.91;5043278;28;45511;-71
2023/09/11 03:29:19;;;;;;;;;2.00;2.00;;;;;22.02;68.97;100016.50;5057975;28;46092;-72
2023/09/11 03:31:45;;;;;;;;;2.00;2.00;;;;;22.00;68.97;100006.78;5057825;28;45492;-71
2023/09/11 03:34:11;;;;;;;;;1.00;1.00;;;;;22.01;68.99;100004.09;5041213;28;45536;-70
2023/09/11 03:36:36;;;;;;;;;1.00;1.00;;;;;22.09;69.21;100022.53;5053367;28;45450;-71
2023/09/11 03:39:02;;;;;;;;;1.00;1.00;;;;;22.06;68.90;100003.97;5044819;28;47029;-71
2023/09/11 03:41:29;;;;;;;;;3.33;3.00;;;;;22.16;69.24;100017.91;5057661;28;45549;-71
2023/09/11 03:43:55;;;;;;;;;2.00;2.00;;;;;22.09;68.68;100006.56;5040888;28;45446;-71
2023/09/11 03:46:21;;;;;;;;;2.67;2.00;;;;;22.00;67.97;99997.03;5054424;28;45438;-72
2023/09/11 03:48:47;;;;;;;;;1.67;1.00;;;;;22.05;68.43;100012.88;5057440;28;46105;-72
2023/09/11 03:51:13;;;;;;;;;0.67;0.67;;;;;21.95;68.90;99988.28;5045333;28;45497;-71
2023/09/11 03:53:42;;;;;;;;;1.00;1.00;;;;;21.99;67.98;100000.59;5054115;28;45589;-71
2023/09/11 03:56:09;;;;;;;;;1.00;1.00;;;;;21.97;68.77;99999.75;5042591;28;45291;-71
2023/09/11 03:58:35;;;;;;;;;2.67;2.00;;;;;21.97;69.12;100002.44;5057292;28;45982;-71
2023/09/11 04:01:01;;;;;;;;;2.67;2.00;;;;;22.01;69.06;100003.22;5057324;28;46980;-71
2023/09/11 04:03:26;;;;;;;;;2.00;2.00;;;;;21.99;68.95;99997.06;5039815;28;45350;-73
2023/09/11 04:05:52;;;;;;;;;3.00;3.00;;;;;22.04;69.17;100004.03;5057859;28;45409;-71
2023/09/11 04:08:17;;;;;;;;;1.00;1.00;;;;;22.10;68.56;100008.28;5056763;28;45904;-71
2023/09/11 04:10:44;;;;;;;;;1.00;1.00;;;;;22.11;68.05;100011.84;5056967;28;45441;-71
2023/09/11 04:13:09;;;;;;;;;2.00;1.00;;;;;22.09;67.78;100005.69;5055979;28;45548;-70
2023/09/11 04:15:36;;;;;;;;;1.33;1.33;;;;;22.09;68.19;100014.53;5052293;28;45504;-71
2023/09/11 04:18:01;;;;;;;;;2.00;2.00;;;;;22.06;68.02;100006.63;5044357;28;45946;-71
2023/09/11 04:20:32;;;;;;;;;1.00;1.00;;;;;22.01;67.87;100005.88;5055854;28;45437;-71
2023/09/11 04:23:00;;;;;;;;;2.00;2.00;;;;;21.97;68.55;100001.56;5056713;28;45256;-70
2023/09/11 04:25:25;;;;;;;;;2.00;2.00;;;;;21.92;68.54;99998.13;5038192;28;45516;-71
2023/09/11 04:27:51;;;;;;;;;3.00;2.00;;;;;21.89;68.21;99998.22;5045166;28;46150;-71
2023/09/11 04:30:17;;;;;;;;;1.33;1.33;;;;;21.89;68.57;99995.56;5057220;28;45350;-70
2023/09/11 04:32:43;;;;;;;;;2.00;1.00;;;;;21.80;68.55;99991.34;5052166;28;45493;-71
2023/09/11 04:35:09;;;;;;;;;2.00;2.00;;;;;21.87;68.74;99995.59;5041300;28;45440;-71
2023/09/11 04:37:36;;;;;;;;;2.00;2.00;;;;;21.99;68.87;100015.69;5056646;28;45573;-71
2023/09/11 04:40:05;;;;;;;;;3.67;2.00;;;;;22.05;69.20;100023.50;5044936;28;45303;-71
2023/09/11 04:42:31;;;;;;;;;1.00;1.00;;;;;21.98;68.88;100013.94;5052129;28;45556;-71
2023/09/11 04:44:58;;;;;;;;;1.00;1.00;;;;;22.08;68.20;100022.56;5053352;28;45493;-71
2023/09/11 04:47:25;;;;;;;;;2.00;1.00;;;;;22.11;68.14;100019.81;5044902;28;45524;-71
2023/09/11 04:49:50;;;;;;;;;2.00;2.00;;;;;22.09;68.55;100011.88;5056761;28;45208;-72
2023/09/11 04:52:16;;;;;;;;;4.00;1.33;;;;;22.01;69.05;100006.75;5056965;28;45394;-71
2023/09/11 04:54:42;;;;;;;;;2.00;1.00;;;;;22.12;68.59;100024.22;5055511;28;45420;-72
2023/09/11 04:57:07;;;;;;;;;1.00;1.00;;;;;22.15;68.79;100019.69;5049090;28;46052;-71
2023/09/11 04:59:33;;;;;;;;;2.00;2.00;;;;;22.17;68.41;100024.97;5048576;28;45498;-71
2023/09/11 05:01:58;;;;;;;;;1.00;1.00;;;;;22.12;69.03;100018.91;5056431;28;45256;-70
2023/09/11 05:04:24;;;;;;;;;1.67;1.67;;;;;22.15;68.52;100010.84;5053594;28;45504;-70
2023/09/11 05:06:50;;;;;;;;;2.33;2.33;;;;;22.11;68.66;99995.88;5048175;28;45405;-71
2023/09/11 05:09:15;;;;;;;;;2.00;2.00;;;;;22.12;67.71;100018.91;5045364;28;45481;-71
2023/09/11 05:11:41;;;;;;;;;2.00;2.00;;;;;22.14;68.51;100036.56;5052240;28;45475;-71
2023/09/11 05:14:06;;;;;;;;;1.00;1.00;;;;;22.17;68.42;100027.66;5054460;28;45302;-71
2023/09/11 05:16:32;;;;;;;;;2.00;1.00;;;;;22.04;68.80;100011.09;5054594;28;46301;-72
2023/09/11 05:18:58;;;;;;;;;1.67;1.33;;;;;22.14;68.87;100041.00;5056473;28;45417;-71
2023/09/11 05:21:23;;;;;;;;;3.00;3.00;;;;;22.18;68.70;100038.25;5051623;28;45514;-71
2023/09/11 05:23:49;;;;;;;;;3.00;3.00;;;;;22.22;68.40;100028.38;5044711;28;45489;-71
2023/09/11 05:26:15;;;;;;;;;3.00;2.00;;;;;21.89;68.55;99991.13;5044634;28;45435;-70
2023/09/11 05:28:40;;;;;;;;;2.00;2.00;;;;;22.15;69.37;100030.34;5046011;28;45693;-73
2023/09/11 05:31:07;;;;;;;;;2.00;2.00;;;;;22.13;69.09;100023.31;5046959;28;45626;-71
2023/09/11 05:33:32;;;;;;;;;1.00;1.00;;;;;22.23;68.61;100043.44;5049341;28;45370;-70
2023/09/11 05:35:58;;;;;;;;;2.33;2.33;;;;;22.21;69.25;100032.84;5053074;28;46041;-71
2023/09/11 05:38:24;;;;;;;;;2.00;2.00;;;;;22.30;69.38;100033.53;5049799;28;45292;-74
2023/09/11 05:40:49;;;;;;;;;3.00;2.00;;;;;22.31;69.04;100028.19;5051529;28;45519;-70
2023/09/11 05:43:15;;;;;;;;;2.00;2.00;;;;;22.38;68.49;100036.84;5045566;28;46409;-70
2023/09/11 05:45:41;;;;;;;;;2.00;1.00;;;;;22.42;68.08;100036.75;5043498;28;46235;-70
2023/09/11 05:48:11;;;;;;;;;3.00;3.00;;;;;22.47;67.69;100049.94;5048272;28;45492;-71
2023/09/11 05:50:37;;;;;;;;;3.00;2.33;;;;;22.52;66.81;100041.81;5044312;28;45524;-71
2023/09/11 05:53:07;;;;;;;;;2.00;2.00;;;;;22.42;66.16;100031.44;5048076;28;45507;-70
2023/09/11 05:55:33;;;;;;;;;2.00;2.00;;;;;22.44;65.20;100018.06;5047566;28;45490;-70
2023/09/11 05:58:02;;;;;;;;;4.00;3.00;;;;;22.64;64.25;100026.41;5052375;28;45528;-70
2023/09/11 06:00:28;;;;;;;;;5.00;4.33;;;;;22.77;62.53;100016.25;5047827;28;45312;-70
2023/09/11 06:02:54;;;;;;;;;4.00;4.00;;;;;22.88;61.92;100007.06;5041880;28;45573;-71
2023/09/11 06:05:20;;;;;;;;;3.67;3.67;;;;;23.00;61.50;100014.72;5047730;28;45518;-70
2023/09/11 06:07:45;;;;;;;;;3.00;2.67;;;;;23.19;61.49;100017.72;5037091;28;45419;-70
2023/09/11 06:10:12;;;;;;;;;4.33;4.00;;;;;23.30;60.50;100028.03;5049054;28;45419;-70
2023/09/11 06:12:39;;;;;;;;;4.00;4.00;;;;;23.43;60.91;100026.75;5050585;28;45443;-70
2023/09/11 06:15:06;;;;;;;;;4.33;3.33;;;;;23.49;60.73;100031.03;5048197;28;45730;-70
2023/09/11 06:17:32;;;;;;;;;4.00;4.00;;;;;23.54;60.37;100021.09;5042406;28;45524;-71
2023/09/11 06:19:58;;;;;;;;;6.00;4.00;;;;;23.61;59.68;100041.28;5047530;28;45479;-70
2023/09/11 06:22:24;;;;;;;;;4.00;4.00;;;;;23.59;60.04;100022.66;5055158;28;45513;-71
2023/09/11 06:24:50;;;;;;;;;4.00;4.00;;;;;23.63;60.47;100019.00;5055180;28;45921;-70
2023/09/11 06:27:16;;;;;;;;;5.00;3.67;;;;;23.65;60.64;100020.75;5041989;28;45478;-71
2023/09/11 06:29:41;;;;;;;;;3.33;3.33;;;;;23.62;61.21;100029.72;5051144;28;45425;-71
2023/09/11 06:32:07;;;;;;;;;3.00;3.00;;;;;23.43;61.82;100019.63;5054471;28;45298;-71
2023/09/11 06:34:34;;;;;;;;;4.00;4.00;;;;;23.37;62.71;100026.94;5046827;28;45627;-76
2023/09/11 06:37:00;;;;;;;;;3.00;3.00;;;;;23.36;63.25;100003.91;5049614;28;46210;-74
2023/09/11 06:39:25;;;;;;;;;2.00;2.00;;;;;23.34;61.95;99981.75;5050149;28;45852;-72
2023/09/11 06:41:51;;;;;;;;;3.00;2.67;;;;;23.34;62.15;99984.41;5045610;28;45616;-83
2023/09/11 06:44:17;;;;;;;;;3.33;2.33;;;;;23.37;63.24;99984.31;5045619;28;45548;-73
2023/09/11 06:46:43;;;;;;;;;3.33;3.00;;;;;23.37;63.37;99968.31;5047307;28;45660;-70
2023/09/11 06:49:08;;;;;;;;;3.00;2.33;;;;;23.33;62.87;99956.88;5052066;28;45350;-84
2023/09/11 06:51:35;;;;;;;;;2.00;2.00;;;;;23.32;62.69;99947.16;5052139;28;47321;-73
2023/09/11 06:54:03;;;;;;;;;3.00;3.00;;;;;23.30;64.45;99937.44;5051221;28;45981;-72
2023/09/11 06:56:28;;;;;;;;;3.00;3.00;;;;;23.22;63.91;99911.06;5048576;28;45214;-71
2023/09/11 06:58:54;;;;;;;;;3.67;3.00;;;;;23.07;64.35;99868.91;5052432;28;45485;-70
2023/09/11 07:01:19;;;;;;;;;3.00;3.00;;;;;23.11;64.99;99891.88;5052828;28;45542;-70
2023/09/11 07:03:46;;;;;;;;;2.67;2.00;;;;;23.11;65.56;99906.06;5049844;28;45520;-70
2023/09/11 07:06:12;;;;;;;;;2.67;2.00;;;;;23.13;65.83;99898.88;5045958;28;45466;-70
2023/09/11 07:08:37;;;;;;;;;1.33;1.33;;;;;23.11;64.51;99906.06;5051805;28;45480;-70
2023/09/11 07:11:03;;;;;;;;;2.33;2.00;;;;;23.16;64.83;99908.59;5057625;28;45417;-70
2023/09/11 07:13:29;;;;;;;;;1.33;1.33;;;;;23.17;65.02;99924.50;5052743;28;46220;-71
2023/09/11 07:15:55;;;;;;;;;2.00;2.00;;;;;23.18;65.70;99939.59;5054515;28;45576;-70
2023/09/11 07:18:21;;;;;;;;;1.00;1.00;;;;;23.26;64.94;99949.13;5050456;28;45491;-71
2023/09/11 07:20:47;;;;;;;;;2.00;2.00;;;;;23.25;64.43;99940.25;5057807;28;45392;-70
2023/09/11 07:23:12;;;;;;;;;1.00;1.00;;;;;23.23;64.97;99974.06;5068658;28;45506;-70
2023/09/11 07:25:38;;;;;;;;;1.00;1.00;;;;;23.18;63.96;100000.88;5050241;27;45554;-69
2023/09/11 07:28:04;;;;;;;;;1.00;1.00;;;;;23.13;64.81;100036.56;5050004;28;45556;-69
2023/09/11 07:30:30;;;;;;;;;2.00;1.33;;;;;23.10;64.15;100029.56;5044374;28;45534;-69
2023/09/11 07:32:55;;;;;;;;;1.00;1.00;;;;;23.14;64.65;100054.28;5062203;28;45412;-69
2023/09/11 07:35:21;;;;;;;;;2.00;2.00;;;;;23.19;64.40;100058.56;5055349;28;45818;-69
2023/09/11 07:37:48;;;;;;;;;1.00;1.00;;;;;23.21;63.66;100075.38;5047993;28;45640;-69
2023/09/11 07:40:14;;;;;;;;;2.67;2.00;;;;;23.24;63.92;100053.13;5048755;28;45497;-74
2023/09/11 07:42:40;;;;;;;;;1.00;1.00;;;;;23.29;62.88;100066.28;5053903;28;45842;-69
2023/09/11 07:45:06;;;;;;;;;1.00;0.00;;;;;23.39;62.54;100067.75;5046258;28;45427;-69
2023/09/11 07:47:32;;;;;;;;;1.67;1.33;;;;;23.32;64.62;100055.56;5046293;28;45569;-69
2023/09/11 07:49:57;;;;;;;;;2.33;2.33;;;;;23.18;65.58;100058.63;5048915;28;45465;-69
2023/09/11 07:52:23;;;;;;;;;2.00;2.00;;;;;23.19;65.78;100082.53;5046939;28;46200;-69
2023/09/11 07:54:49;;;;;;;;;1.33;1.33;;;;;23.12;64.60;100061.44;5044894;28;45521;-69
2023/09/11 07:57:14;;;;;;;;;0.00;0.00;;;;;23.21;60.45;100059.38;5048501;28;45429;-69
2023/09/11 07:59:40;;;;;;;;;2.00;1.00;;;;;23.36;62.22;100058.06;5049602;28;45495;-69
2023/09/11 08:02:06;;;;;;;;;1.33;1.33;;;;;23.13;63.71;100050.75;5046120;28;45506;-68
2023/09/11 08:04:32;;;;;;;;;1.00;1.00;;;;;23.13;64.77;100056.09;5047764;28;45477;-68
2023/09/11 08:06:58;;;;;;;;;1.00;1.00;;;;;23.05;64.54;100065.22;5047903;28;45513;-69
2023/09/11 08:09:24;;;;;;;;;1.33;1.00;;;;;23.25;64.58;100097.47;5047358;28;45309;-69
2023/09/11 08:11:50;;;;;;;;;2.00;2.00;;;;;23.32;63.48;100092.88;5043346;28;45380;-70
2023/09/11 08:14:16;;;;;;;;;2.00;1.33;;;;;23.43;63.09;100091.59;5044145;28;45439;-71
2023/09/11 08:16:42;;;;;;;;;3.33;1.00;;;;;23.40;63.37;100104.16;5047008;28;45605;-69
2023/09/11 08:19:09;;;;;;;;;2.00;1.00;;;;;23.41;63.99;100097.91;5046247;28;45521;-69
2023/09/11 08:21:34;;;;;;;;;1.00;1.00;;;;;23.48;64.01;100106.59;5049002;28;45524;-70
2023/09/11 08:24:00;;;;;;;;;2.00;2.00;;;;;23.58;64.09;100126.72;5044106;28;45421;-69
2023/09/11 08:26:26;;;;;;;;;2.00;2.00;;;;;23.60;64.07;100138.22;5044774;28;45381;-69
2023/09/11 08:28:51;;;;;;;;;4.33;4.00;;;;;23.54;65.02;100130.41;5043940;28;45619;-70
2023/09/11 08:31:17;;;;;;;;;3.67;3.00;;;;;23.69;64.89;100150.38;5052097;28;45416;-71
2023/09/11 08:33:43;;;;;;;;;3.00;3.00;;;;;23.72;65.15;100147.66;5051161;28;45441;-69
2023/09/11 08:36:10;;;;;;;;;2.00;1.67;;;;;23.81;63.95;100144.69;5043694;28;45643;-69
2023/09/11 08:38:36;;;;;;;;;2.33;2.00;;;;;23.75;64.03;100129.72;5053921;28;45567;-69
2023/09/11 08:41:06;;;;;;;;;4.00;3.00;;;;;23.83;63.42;100132.19;5054056;28;45978;-68
2023/09/11 08:43:32;;;;;;;;;2.67;2.00;;;;;23.85;64.05;100134.81;5054339;28;45505;-69
2023/09/11 08:45:58;;;;;;;;;3.00;2.00;;;;;23.86;63.53;100124.09;5044706;28;45580;-69
2023/09/11 08:48:30;;;;;;;;;2.00;2.00;;;;;23.80;64.24;100138.50;5041437;28;45857;-69
2023/09/11 08:51:00;;;;;;;;;3.00;2.00;;;;;23.77;64.48;100156.34;5048653;28;46259;-69
2023/09/11 08:53:29;;;;;;;;;1.33;1.33;;;;;23.72;63.14;100136.97;5047381;28;45766;-69
2023/09/11 08:55:56;;;;;;;;;2.00;2.00;;;;;23.78;63.74;100134.16;5055428;28;45516;-69
2023/09/11 08:58:23;;;;;;;;;2.00;2.00;;;;;23.73;64.54;100133.38;5054337;28;45530;-69
2023/09/11 09:00:49;;;;;;;;;1.67;1.67;;;;;23.82;64.98;100126.00;5055644;28;45484;-68
2023/09/11 09:03:16;;;;;;;;;2.00;2.00;;;;;23.89;64.88;100116.00;5044910;28;45605;-69
2023/09/11 09:05:42;;;;;;;;;2.00;2.00;;;;;24.02;64.78;100124.50;5047104;28;45504;-70
2023/09/11 09:08:12;;;;;;;;;2.67;2.67;;;;;24.07;64.32;100127.00;5047062;28;45486;-69
2023/09/11 09:10:39;;;;;;;;;1.00;1.00;;;;;24.18;64.44;100132.88;5048240;28;45951;-70
2023/09/11 09:13:06;;;;;;;;;2.00;1.00;;;;;24.15;64.37;100119.63;5055784;28;45512;-69
2023/09/11 09:15:35;;;;;;;;;2.67;2.00;;;;;24.28;64.13;100131.63;5042588;28;45937;-68
2023/09/11 09:18:01;;;;;;;;;2.00;2.00;;;;;24.31;63.62;100141.34;5050217;28;45497;-68
2023/09/11 09:20:32;;;;;;;;;1.00;1.00;;;;;24.41;63.16;100157.00;5044064;28;45508;-67
2023/09/11 09:23:00;;;;;;;;;2.33;1.67;;;;;24.40;61.80;100167.72;5043159;28;45513;-67
2023/09/11 09:25:27;;;;;;;;;3.00;3.00;;;;;24.30;62.34;100179.66;5045068;28;45327;-67
2023/09/11 09:27:54;;;;;;;;;3.67;2.33;;;;;24.20;63.31;100179.06;5038350;28;45347;-71
2023/09/11 09:30:22;;;;;;;;;4.00;3.00;;;;;24.20;62.37;100157.72;5042239;28;45553;-68
2023/09/11 09:32:49;;;;;;;;;3.00;3.00;;;;;24.16;62.99;100142.72;5045625;28;45618;-68
2023/09/11 09:35:19;;;;;;;;;3.00;2.00;;;;;24.16;61.63;100140.91;5046213;28;45455;-68
2023/09/11 09:37:52;;;;;;;;;3.00;2.00;;;;;24.24;62.60;100127.31;5055899;28;45481;-68
2023/09/11 09:40:33;;;;;;;;;3.00;2.33;;;;;24.30;62.44;100127.13;5040186;28;45511;-68
2023/09/11 09:43:00;;;;;;;;;1.67;1.67;;;;;24.45;61.58;100130.19;5048465;28;45610;-68
2023/09/11 09:45:40;;;;;;;;;2.33;2.00;;;;;24.46;61.22;100113.25;5050388;28;45441;-69
2023/09/11 09:48:17;;;;;;;;;0.00;0.00;;;;;24.47;61.55;100117.66;5045986;28;45395;-67
2023/09/11 09:50:54;;;;;;;;;3.67;2.67;;;;;24.41;60.77;100116.97;5049845;28;45365;-69
2023/09/11 09:53:29;;;;;;;;;2.67;2.67;;;;;24.45;60.65;100108.84;5063873;28;46010;-71
2023/09/11 09:55:57;;;;;;;;;1.00;1.00;;;;;24.42;59.71;100105.34;5044957;28;45457;-73
2023/09/11 09:58:27;;;;;;;;;2.00;2.00;;;;;24.45;60.79;100116.84;5045556;28;45508;-69
2023/09/11 10:01:07;;;;;;;;;2.00;1.67;;;;;24.45;60.46;100125.72;5054076;28;45613;-73
2023/09/11 10:03:49;;;;;;;;;3.00;2.33;;;;;24.44;61.98;100112.44;5046466;28;45298;-68
2023/09/11 10:06:27;;;;;;;;;3.00;2.00;;;;;24.41;61.84;100114.28;5052661;28;45471;-69
2023/09/11 10:09:13;;;;;;;;;5.00;2.00;;;;;24.44;62.09;100118.66;5040666;28;45449;-68
2023/09/11 10:11:41;;;;;;;;;3.33;2.00;;;;;24.45;62.41;100109.69;5043434;28;46204;-69
2023/09/11 10:14:08;;;;;;;;;4.67;4.67;;;;;24.36;62.83;100102.88;5049404;28;45572;-68
2023/09/11 10:16:34;;;;;;;;;3.67;3.00;;;;;24.34;62.56;100090.53;5049397;28;46077;-69
2023/09/11 10:19:01;;;;;;;;;2.33;2.33;;;;;24.48;62.31;100074.03;5051860;28;45552;-69
2023/09/11 10:21:28;;;;;;;;;2.00;2.00;;;;;24.72;62.13;100062.50;5054513;28;45479;-69
2023/09/11 10:23:54;;;;;;;;;3.00;3.00;;;;;25.05;61.84;100061.31;5046720;28;45555;-69
2023/09/11 10:26:45;;;;;;;;;3.00;3.00;;;;;25.42;61.35;100063.47;5047692;28;45472;-69
2023/09/11 10:29:17;;;;;;;;;2.67;2.00;;;;;25.72;61.02;100056.03;5049999;28;45616;-69
2023/09/11 10:31:53;;;;;;;;;3.00;2.00;;;;;25.90;60.18;100057.09;5046935;28;45776;-70
2023/09/11 10:34:21;;;;;;;;;4.00;3.00;;;;;26.02;60.16;100061.09;5050763;28;45426;-72
2023/09/11 10:36:53;;;;;;;;;6.33;4.33;;;;;26.17;60.04;100072.97;5040555;28;45417;-69
2023/09/11 10:39:20;;;;;;;;;3.00;2.67;;;;;26.26;58.37;100063.66;5039224;28;45617;-68
2023/09/11 10:41:46;;;;;;;;;2.00;2.00;;;;;26.34;58.56;100064.22;5045969;28;46015;-69
2023/09/11 10:44:12;;;;;;;;;2.00;2.00;;;;;26.43;57.60;100081.69;5048750;28;45548;-71
2023/09/11 10:46:39;;;;;;;;;5.00;3.00;;;;;26.55;58.09;100075.81;5046066;28;45496;-70
2023/09/11 10:49:27;;;;;;;;;5.33;4.00;;;;;26.66;57.58;100061.97;5050532;28;45347;-71
2023/09/11 10:53:59;;;;;;;;;4.00;4.00;;;;;26.82;56.13;100063.03;5088881;27;45503;-72
2023/09/11 10:56:24;;;;;;;;;3.00;2.00;;;;;27.03;55.50;100055.81;5064711;28;45378;-71
2023/09/11 10:58:52;;;;;;;;;2.33;2.33;;;;;27.25;55.27;100054.84;5063997;28;45310;-69
2023/09/11 11:01:18;;;;;;;;;3.00;3.00;;;;;27.38;54.12;100040.78;5088531;27;45377;-71
2023/09/11 11:03:44;;;;;;;;;77.75;66.25;;;;;27.46;54.46;100052.97;5087433;27;47586;-70
2023/09/11 11:06:14;;;;;;;;;2.00;2.00;;;;;27.52;53.58;100058.91;5058152;28;45485;-71
2023/09/11 11:08:41;;;;;;;;;2.67;2.67;;;;;27.52;54.50;100041.94;5068693;28;45381;-70
2023/09/11 11:11:21;;;;;;;;;1.00;1.00;;;;;27.56;52.38;100027.44;5052813;28;45397;-70
2023/09/11 11:14:21;;;;;;;;;2.33;2.00;;;;;27.64;54.12;100040.47;5072966;27;45366;-71
2023/09/11 11:17:00;;;;;;;;;2.00;2.00;;;;;27.87;54.63;100050.97;5068046;28;45419;-71
2023/09/11 11:19:30;;;;;;;;;3.00;2.00;;;;;28.02;54.79;100025.19;5052641;28;45588;-71
2023/09/11 11:21:56;;;;;;;;;3.33;3.33;;;;;28.21;54.41;100026.91;5052607;28;45303;-70
2023/09/11 11:24:24;;;;;;;;;3.00;2.33;;;;;28.61;53.28;100039.19;5062131;28;45420;-71
2023/09/11 11:26:54;;;;;;;;;2.00;2.00;;;;;28.80;51.18;100038.19;5056650;28;45564;-70
2023/09/11 11:29:20;;;;;;;;;6.00;5.00;;;;;28.94;52.90;100051.75;5063255;28;45532;-71